Terminal Aerodrome Forecast
Issued by NWS Lake Charles, LA

Home | Current Version | Previous Version | Text Only | Print | Product List | Glossary On
Versions: 1 2 3 4 5 6 7 8 9 10 11 12 13 14 15 16 17
798
FTUS44 KLCH 302047 AAA
TAFARA
TAF AMD
KARA 302047Z 3021/3118 19011KT P6SM SCT025
     FM310000 25005KT P6SM SKC
     FM310500 VRB03KT 3SM BR SKC
     FM311400 16005KT P6SM SKC=

USA.gov is the U.S. government's official web portal to all federal, state and local government web resources and services.